createdAt,value
2023-07-26T00:01:05.339Z,13.60
2023-07-26T00:03:34.922Z,13.60
2023-07-26T00:06:04.662Z,13.60
2023-07-26T00:08:34.166Z,13.60
2023-07-26T00:11:05.509Z,13.60
2023-07-26T00:13:35.485Z,13.50
2023-07-26T00:16:05.407Z,13.50
2023-07-26T00:18:34.944Z,13.50
2023-07-26T00:21:04.577Z,13.50
2023-07-26T00:23:34.061Z,13.40
2023-07-26T00:26:03.980Z,13.40
2023-07-26T00:28:33.398Z,13.40
2023-07-26T00:31:02.875Z,13.40
2023-07-26T00:33:32.451Z,13.40
2023-07-26T00:36:02.025Z,13.30
2023-07-26T00:38:31.696Z,13.30
2023-07-26T00:41:01.240Z,13.30
2023-07-26T00:43:30.730Z,13.30
2023-07-26T00:46:00.494Z,13.20
2023-07-26T00:48:30.369Z,13.30
2023-07-26T00:51:00.933Z,13.20
2023-07-26T00:53:31.238Z,13.20
2023-07-26T00:56:00.824Z,13.20
2023-07-26T00:58:30.676Z,13.20
2023-07-26T01:01:01.596Z,13.20
2023-07-26T01:03:31.066Z,13.20
2023-07-26T01:06:22.840Z,13.20
2023-07-26T01:09:04.476Z,13.20
2023-07-26T01:11:49.848Z,13.20
2023-07-26T01:14:25.045Z,13.20
2023-07-26T01:16:55.343Z,13.20
2023-07-26T01:19:24.847Z,13.20
2023-07-26T01:21:54.338Z,13.20
2023-07-26T01:24:24.078Z,13.20
2023-07-26T01:26:53.470Z,13.20
2023-07-26T01:29:24.283Z,13.20
2023-07-26T01:31:54.535Z,13.20
2023-07-26T01:34:24.301Z,13.20
2023-07-26T01:36:54.996Z,13.20
2023-07-26T01:39:25.484Z,13.20
2023-07-26T01:41:54.464Z,13.20
2023-07-26T01:44:23.841Z,13.10
2023-07-26T01:46:54.904Z,13.10
2023-07-26T01:49:24.522Z,13.10
2023-07-26T01:51:53.909Z,13.10
2023-07-26T01:54:23.442Z,13.00
2023-07-26T01:56:53.057Z,13.00
2023-07-26T01:59:22.565Z,13.00
2023-07-26T02:01:53.333Z,13.00
2023-07-26T02:04:23.385Z,13.00
2023-07-26T02:06:54.704Z,13.00
2023-07-26T02:09:24.348Z,13.00
2023-07-26T02:11:53.763Z,12.90
2023-07-26T02:14:23.594Z,12.90
2023-07-26T02:16:53.004Z,12.90
2023-07-26T02:19:22.526Z,12.90
2023-07-26T02:21:51.931Z,12.80
2023-07-26T02:24:22.483Z,12.80
2023-07-26T02:26:52.367Z,12.70
2023-07-26T02:29:22.186Z,12.70
2023-07-26T02:31:51.876Z,12.70
2023-07-26T02:34:21.442Z,12.70
2023-07-26T02:36:50.885Z,12.60
2023-07-26T02:39:20.420Z,12.60
2023-07-26T02:41:49.890Z,12.50
2023-07-26T02:44:19.350Z,12.50
2023-07-26T02:46:48.759Z,12.40
2023-07-26T02:49:19.298Z,12.40
2023-07-26T02:51:47.967Z,12.40
2023-07-26T02:54:17.472Z,12.40
2023-07-26T02:56:46.921Z,12.30
2023-07-26T02:59:16.804Z,12.30
2023-07-26T03:01:46.417Z,12.30
2023-07-26T03:04:15.885Z,12.30
2023-07-26T03:06:45.519Z,12.30
2023-07-26T03:09:14.998Z,12.30
2023-07-26T03:11:44.460Z,12.30
2023-07-26T03:14:14.199Z,12.30
2023-07-26T03:16:44.755Z,12.20
2023-07-26T03:19:14.370Z,12.20
2023-07-26T03:21:43.867Z,12.20
2023-07-26T03:24:13.285Z,12.20
2023-07-26T03:26:42.753Z,12.20
2023-07-26T03:29:12.198Z,12.20
2023-07-26T03:31:41.643Z,12.20
2023-07-26T03:34:11.138Z,12.20
2023-07-26T03:36:41.264Z,12.20
2023-07-26T03:39:11.170Z,12.20
2023-07-26T03:41:41.194Z,12.30
2023-07-26T03:44:10.692Z,12.30
2023-07-26T03:46:40.281Z,12.30
2023-07-26T03:49:09.880Z,12.30
2023-07-26T03:51:40.196Z,12.30
2023-07-26T03:54:09.736Z,12.40
2023-07-26T03:56:39.302Z,12.40
2023-07-26T03:59:08.795Z,12.50
2023-07-26T04:01:38.988Z,12.60
2023-07-26T04:04:08.771Z,12.60
2023-07-26T04:06:38.204Z,12.70
2023-07-26T04:09:07.730Z,12.80
2023-07-26T04:11:37.296Z,12.80
2023-07-26T04:14:06.816Z,12.90
2023-07-26T04:16:36.491Z,13.00
2023-07-26T04:19:06.099Z,13.00
2023-07-26T04:21:35.578Z,13.10
2023-07-26T04:24:05.288Z,13.20
2023-07-26T04:26:35.144Z,13.20
2023-07-26T04:29:04.809Z,13.30
2023-07-26T04:31:34.393Z,13.40
2023-07-26T04:34:03.896Z,13.50
2023-07-26T04:36:33.547Z,13.50
2023-07-26T04:39:03.274Z,13.60
2023-07-26T04:41:32.726Z,13.70
2023-07-26T04:44:02.251Z,13.80
2023-07-26T04:46:32.161Z,13.90
2023-07-26T04:49:01.817Z,14.00
2023-07-26T04:51:31.692Z,14.10
2023-07-26T04:54:03.738Z,14.20
2023-07-26T04:56:33.206Z,14.40
2023-07-26T04:59:02.982Z,14.50
2023-07-26T05:01:32.531Z,14.60
2023-07-26T05:04:02.401Z,14.60
2023-07-26T05:06:32.142Z,14.70
2023-07-26T05:09:01.690Z,14.80
2023-07-26T05:11:31.591Z,14.90
2023-07-26T05:14:01.144Z,15.00
2023-07-26T05:16:30.812Z,15.10
2023-07-26T05:19:01.334Z,15.20
2023-07-26T05:21:31.104Z,15.40
2023-07-26T05:24:00.783Z,15.50
2023-07-26T05:26:30.293Z,15.60
2023-07-26T05:28:59.789Z,15.70
2023-07-26T05:31:29.200Z,15.70
2023-07-26T05:33:58.762Z,15.70
2023-07-26T05:36:28.169Z,15.90
2023-07-26T05:38:57.683Z,16.00
2023-07-26T05:41:28.873Z,16.10
2023-07-26T05:43:58.677Z,16.20
2023-07-26T05:46:28.187Z,16.20
2023-07-26T05:48:57.650Z,16.40
2023-07-26T05:51:27.069Z,16.50
2023-07-26T05:53:56.522Z,16.60
2023-07-26T05:56:26.105Z,16.70
2023-07-26T05:58:55.578Z,16.80
2023-07-26T06:01:25.240Z,16.90
2023-07-26T06:03:54.806Z,17.00
2023-07-26T06:06:24.327Z,17.20
2023-07-26T06:08:53.936Z,17.30
2023-07-26T06:11:23.392Z,17.50
2023-07-26T06:13:52.827Z,17.60
2023-07-26T06:16:22.448Z,17.80
2023-07-26T06:18:52.189Z,17.90
2023-07-26T06:21:21.954Z,18.10
2023-07-26T06:23:51.452Z,18.30
2023-07-26T06:26:22.042Z,18.40
2023-07-26T06:28:51.495Z,18.60
2023-07-26T06:31:20.978Z,18.80
2023-07-26T06:33:50.495Z,19.00
2023-07-26T06:36:19.956Z,19.10
2023-07-26T06:38:49.567Z,19.20
2023-07-26T06:41:19.017Z,19.30
2023-07-26T06:43:48.958Z,19.40
2023-07-26T06:46:18.472Z,19.40
2023-07-26T06:48:48.021Z,19.40
2023-07-26T06:51:17.477Z,19.30
2023-07-26T06:53:46.976Z,19.30
2023-07-26T06:56:16.746Z,19.40
2023-07-26T06:58:46.125Z,19.50
2023-07-26T07:01:19.377Z,19.50
2023-07-26T07:03:59.040Z,19.50
2023-07-26T07:06:20.131Z,19.70
2023-07-26T07:08:49.606Z,19.70
2023-07-26T07:11:19.073Z,19.80
2023-07-26T07:13:48.566Z,19.60
2023-07-26T07:16:18.040Z,19.70
2023-07-26T07:18:47.490Z,19.60
2023-07-26T07:21:17.015Z,19.60
2023-07-26T07:23:47.565Z,19.70
2023-07-26T07:26:17.171Z,19.70
2023-07-26T07:28:46.702Z,19.70
2023-07-26T07:34:42.417Z,20.00
2023-07-26T07:37:11.834Z,20.20
2023-07-26T07:39:41.472Z,20.40
2023-07-26T07:42:11.025Z,20.60
2023-07-26T07:44:40.668Z,20.80
2023-07-26T07:47:13.047Z,21.10
2023-07-26T07:49:41.099Z,21.10
2023-07-26T07:52:10.596Z,21.20
2023-07-26T07:54:40.072Z,21.20
2023-07-26T07:57:09.656Z,21.40
2023-07-26T07:59:39.248Z,21.50
2023-07-26T08:02:08.689Z,21.70
2023-07-26T08:04:40.998Z,21.80
2023-07-26T08:07:10.493Z,22.00
2023-07-26T08:09:41.484Z,22.10
2023-07-26T08:12:10.964Z,21.80
2023-07-26T08:14:40.372Z,21.80
2023-07-26T08:17:09.949Z,21.80
2023-07-26T08:19:39.457Z,21.90
2023-07-26T08:22:09.146Z,22.00
2023-07-26T08:24:39.075Z,22.20
2023-07-26T08:27:09.322Z,22.10
2023-07-26T08:29:38.903Z,22.20
2023-07-26T08:34:39.813Z,22.30
2023-07-26T08:37:12.165Z,22.00
2023-07-26T08:39:42.407Z,22.00
2023-07-26T08:42:11.240Z,21.90
2023-07-26T08:44:41.638Z,21.70
2023-07-26T08:47:11.962Z,21.60
2023-07-26T08:49:41.081Z,21.40
2023-07-26T08:52:12.142Z,21.30
2023-07-26T08:54:43.220Z,21.30
2023-07-26T08:57:13.373Z,21.30
2023-07-26T08:59:44.089Z,21.50
2023-07-26T09:02:15.997Z,21.70
2023-07-26T09:04:49.399Z,21.90
2023-07-26T09:07:19.657Z,21.90
2023-07-26T09:09:48.371Z,22.00
2023-07-26T09:12:26.339Z,22.30
2023-07-26T09:15:00.850Z,22.40
2023-07-26T09:17:41.844Z,22.50
2023-07-26T09:20:26.806Z,22.60
2023-07-26T09:23:05.325Z,22.60
2023-07-26T09:25:40.343Z,22.70
2023-07-26T09:28:12.656Z,22.70
2023-07-26T09:30:46.966Z,22.60
2023-07-26T09:33:17.194Z,22.70
2023-07-26T09:35:53.476Z,22.60
2023-07-26T09:38:27.993Z,22.60
2023-07-26T09:40:57.462Z,22.60
2023-07-26T09:43:32.064Z,22.50
2023-07-26T09:46:08.086Z,22.50
2023-07-26T09:48:41.138Z,22.60
2023-07-26T09:53:43.916Z,22.70
2023-07-26T09:56:13.429Z,22.80
2023-07-26T09:58:44.635Z,22.80
2023-07-26T10:01:16.081Z,22.70
2023-07-26T10:03:51.243Z,22.80
2023-07-26T10:06:21.564Z,22.70
2023-07-26T10:08:52.007Z,22.60
2023-07-26T10:11:22.151Z,22.50
2023-07-26T10:13:53.360Z,22.50
2023-07-26T10:16:23.131Z,22.70
2023-07-26T10:18:57.298Z,22.80
2023-07-26T10:21:28.888Z,22.90
2023-07-26T10:23:59.932Z,23.10
2023-07-26T10:26:32.617Z,23.10
2023-07-26T10:29:03.385Z,22.90
2023-07-26T10:31:37.034Z,22.90
2023-07-26T10:34:06.676Z,22.90
2023-07-26T10:36:38.066Z,23.00
2023-07-26T10:39:10.648Z,22.90
2023-07-26T10:41:52.068Z,22.60
2023-07-26T10:44:21.782Z,22.40
2023-07-26T10:46:56.560Z,22.30
2023-07-26T10:49:30.904Z,22.10
2023-07-26T10:52:03.917Z,21.90
2023-07-26T10:55:21.012Z,21.70
2023-07-26T10:57:55.320Z,21.50
2023-07-26T11:00:36.122Z,21.30
2023-07-26T11:03:06.077Z,21.20
2023-07-26T11:05:38.596Z,21.20
2023-07-26T11:08:11.872Z,21.00
2023-07-26T11:10:52.886Z,20.80
2023-07-26T11:16:41.063Z,19.90
2023-07-26T11:19:10.798Z,19.40
2023-07-26T11:21:41.734Z,19.10
2023-07-26T11:24:11.337Z,18.80
2023-07-26T11:26:48.498Z,18.40
2023-07-26T11:29:17.980Z,18.20
2023-07-26T11:31:49.938Z,18.00
2023-07-26T11:34:21.721Z,17.90
2023-07-26T11:36:51.357Z,17.80
2023-07-26T11:39:27.716Z,17.70
2023-07-26T11:41:57.307Z,17.60
2023-07-26T11:44:27.032Z,17.50
2023-07-26T11:46:57.498Z,17.50
2023-07-26T11:49:27.321Z,17.50
2023-07-26T11:52:30.087Z,17.50
2023-07-26T11:54:58.992Z,17.50
2023-07-26T11:57:29.829Z,17.50
2023-07-26T12:00:05.678Z,17.40
2023-07-26T12:02:44.297Z,17.40
2023-07-26T12:05:21.954Z,17.40
2023-07-26T12:07:53.826Z,17.40
2023-07-26T12:10:38.546Z,17.50
2023-07-26T12:13:11.567Z,17.50
2023-07-26T12:15:59.150Z,17.40
2023-07-26T12:18:29.676Z,17.40
2023-07-26T12:21:08.836Z,17.30
2023-07-26T12:23:56.187Z,17.20
2023-07-26T12:26:30.921Z,17.10
2023-07-26T12:29:02.962Z,17.00
2023-07-26T12:31:35.442Z,16.90
2023-07-26T12:34:10.650Z,16.90
2023-07-26T12:36:44.851Z,16.80
2023-07-26T12:39:16.208Z,16.90
2023-07-26T12:41:47.121Z,16.90
2023-07-26T12:44:19.920Z,16.90
2023-07-26T12:49:20.719Z,17.00
2023-07-26T12:51:50.900Z,17.10
2023-07-26T12:54:20.876Z,17.10
2023-07-26T12:56:51.684Z,17.20
2023-07-26T12:59:21.360Z,17.30
2023-07-26T13:01:51.081Z,17.40
2023-07-26T13:04:20.742Z,17.60
2023-07-26T13:06:50.607Z,17.70
2023-07-26T13:09:23.003Z,17.90
2023-07-26T13:11:52.583Z,18.00
2023-07-26T13:14:22.046Z,18.10
2023-07-26T13:16:51.633Z,18.10
2023-07-26T13:19:25.435Z,18.10
2023-07-26T13:21:55.000Z,18.10
2023-07-26T13:24:24.601Z,18.20
2023-07-26T13:26:54.051Z,18.20
2023-07-26T13:29:23.639Z,18.30
2023-07-26T13:31:53.055Z,18.30
2023-07-26T13:34:24.079Z,18.30
2023-07-26T13:36:58.220Z,18.30
2023-07-26T13:39:27.937Z,18.30
2023-07-26T13:41:57.421Z,18.30
2023-07-26T13:44:27.366Z,18.30
2023-07-26T13:46:56.797Z,18.20
2023-07-26T13:49:26.339Z,18.20
2023-07-26T13:51:55.762Z,18.10
2023-07-26T13:54:25.265Z,18.10
2023-07-26T13:56:54.655Z,18.10
2023-07-26T13:59:24.109Z,18.00
2023-07-26T14:01:53.547Z,18.00
2023-07-26T14:04:23.018Z,18.00
2023-07-26T14:06:52.541Z,17.90
2023-07-26T14:09:22.002Z,17.90
2023-07-26T14:11:51.696Z,17.90
2023-07-26T14:14:21.214Z,17.90
2023-07-26T14:16:50.789Z,17.90
2023-07-26T14:19:20.476Z,18.00
2023-07-26T14:21:49.889Z,18.10
2023-07-26T14:24:19.452Z,18.10
2023-07-26T14:26:49.067Z,18.20
2023-07-26T14:29:18.587Z,18.30
2023-07-26T14:31:49.861Z,18.40
2023-07-26T14:34:21.973Z,18.40
2023-07-26T14:36:50.710Z,18.50
2023-07-26T14:39:20.344Z,18.50
2023-07-26T14:41:49.864Z,18.60
2023-07-26T14:44:19.371Z,18.60
2023-07-26T14:46:50.478Z,18.50
2023-07-26T14:49:19.921Z,18.50
2023-07-26T14:51:50.866Z,18.50
2023-07-26T14:54:20.622Z,18.40
2023-07-26T14:57:04.464Z,18.40
2023-07-26T14:59:21.158Z,18.40
2023-07-26T15:01:50.620Z,18.30
2023-07-26T15:04:20.242Z,18.30
2023-07-26T15:06:50.172Z,18.30
2023-07-26T15:09:19.675Z,18.20
2023-07-26T15:11:49.141Z,18.00
2023-07-26T15:14:18.626Z,17.90
2023-07-26T15:16:48.079Z,17.80
2023-07-26T15:19:17.437Z,17.70
2023-07-26T15:21:46.935Z,17.70
2023-07-26T15:24:16.316Z,17.60
2023-07-26T15:26:45.828Z,17.50
2023-07-26T15:29:15.206Z,17.40
2023-07-26T15:31:44.742Z,17.30
2023-07-26T15:34:14.378Z,17.30
2023-07-26T15:36:46.433Z,17.40
2023-07-26T15:39:15.981Z,17.40
2023-07-26T15:42:06.286Z,17.50
2023-07-26T15:44:16.636Z,17.50
2023-07-26T15:49:17.825Z,17.50
2023-07-26T15:51:47.364Z,17.40
2023-07-26T15:54:16.816Z,17.40
2023-07-26T15:56:46.331Z,17.50
2023-07-26T15:59:15.791Z,17.60
2023-07-26T16:01:45.270Z,17.60
2023-07-26T16:21:55.293Z,17.80
2023-07-26T16:24:28.107Z,17.80
2023-07-26T16:26:57.750Z,17.80
2023-07-26T16:29:27.253Z,17.90
2023-07-26T16:31:56.901Z,17.90
2023-07-26T16:34:26.595Z,17.90
2023-07-26T16:36:56.061Z,18.00
2023-07-26T16:39:25.569Z,18.00
2023-07-26T16:41:55.031Z,18.00
2023-07-26T16:44:24.517Z,18.10
2023-07-26T16:47:08.377Z,18.20
2023-07-26T16:49:25.012Z,18.20
2023-07-26T16:51:54.903Z,18.20
2023-07-26T16:54:24.469Z,18.10
2023-07-26T16:56:54.124Z,18.10
2023-07-26T16:59:23.640Z,18.10
2023-07-26T17:01:53.376Z,18.10
2023-07-26T17:04:22.980Z,18.10
2023-07-26T17:06:52.598Z,18.10
2023-07-26T17:09:22.196Z,18.10
2023-07-26T17:11:51.857Z,18.00
2023-07-26T17:14:21.460Z,18.00
2023-07-26T17:16:53.320Z,17.90
2023-07-26T17:19:22.963Z,17.90
2023-07-26T17:21:52.428Z,17.90
2023-07-26T17:24:21.978Z,17.80
2023-07-26T17:26:51.615Z,17.80
2023-07-26T17:29:21.117Z,17.80
2023-07-26T17:31:50.548Z,17.80
2023-07-26T17:34:20.282Z,17.80
2023-07-26T17:36:50.138Z,17.70
2023-07-26T17:39:21.288Z,17.70
2023-07-26T17:41:51.240Z,17.70
2023-07-26T17:44:20.690Z,17.70
2023-07-26T17:46:50.121Z,17.60
2023-07-26T17:49:19.670Z,17.60
2023-07-26T17:51:49.122Z,17.50
2023-07-26T17:54:20.793Z,17.50
2023-07-26T17:56:52.468Z,17.50
2023-07-26T17:59:21.395Z,17.40
2023-07-26T18:01:52.495Z,17.30
2023-07-26T18:04:22.145Z,17.30
2023-07-26T18:06:52.045Z,17.20
2023-07-26T18:09:21.466Z,17.20
2023-07-26T18:11:51.010Z,17.10
2023-07-26T18:14:22.110Z,17.10
2023-07-26T18:16:52.201Z,17.00
2023-07-26T18:19:22.585Z,17.00
2023-07-26T18:21:52.877Z,16.90
2023-07-26T18:24:23.698Z,16.90
2023-07-26T18:26:53.186Z,16.90
2023-07-26T18:29:23.172Z,16.90
2023-07-26T18:31:52.909Z,16.80
2023-07-26T18:34:24.847Z,16.80
2023-07-26T18:36:54.564Z,16.80
2023-07-26T18:39:24.188Z,16.80
2023-07-26T18:41:53.637Z,16.80
2023-07-26T18:44:23.113Z,16.70
2023-07-26T18:46:54.994Z,16.70
2023-07-26T18:49:25.201Z,16.70
2023-07-26T18:51:54.989Z,16.60
2023-07-26T18:54:24.403Z,16.60
2023-07-26T18:56:54.005Z,16.60
2023-07-26T18:59:23.468Z,16.50
2023-07-26T19:01:53.065Z,16.60
2023-07-26T19:04:22.547Z,16.50
2023-07-26T19:06:51.994Z,16.50
2023-07-26T19:09:21.432Z,16.50
2023-07-26T19:11:50.962Z,16.50
2023-07-26T19:14:20.632Z,16.50
2023-07-26T19:16:50.229Z,16.40
2023-07-26T19:19:20.933Z,16.40
2023-07-26T19:21:50.453Z,16.40
2023-07-26T19:24:20.038Z,16.40
2023-07-26T19:26:49.559Z,16.40
2023-07-26T19:29:19.218Z,16.30
2023-07-26T19:31:49.895Z,16.30
2023-07-26T19:34:20.034Z,16.30
2023-07-26T19:36:49.605Z,16.30
2023-07-26T19:39:19.175Z,16.20
2023-07-26T19:41:48.740Z,16.20
2023-07-26T19:44:18.332Z,16.10
2023-07-26T19:46:48.012Z,16.10
2023-07-26T19:49:17.622Z,16.10
2023-07-26T19:51:47.234Z,16.00
2023-07-26T19:54:19.262Z,16.00
2023-07-26T19:56:49.165Z,16.00
2023-07-26T19:59:19.753Z,16.00
2023-07-26T20:01:49.730Z,15.90
2023-07-26T20:04:20.152Z,15.90
2023-07-26T20:06:51.328Z,15.80
2023-07-26T20:09:21.238Z,15.80
2023-07-26T20:11:50.771Z,15.80
2023-07-26T20:14:20.293Z,15.70
2023-07-26T20:16:49.796Z,15.60
2023-07-26T20:19:19.345Z,15.60
2023-07-26T20:21:48.741Z,15.50
2023-07-26T20:24:18.889Z,15.50
2023-07-26T20:26:48.583Z,15.40
2023-07-26T20:29:19.836Z,15.40
2023-07-26T20:31:49.268Z,15.30
2023-07-26T20:34:18.835Z,15.30
2023-07-26T20:36:48.389Z,15.20
2023-07-26T20:39:17.876Z,15.20
2023-07-26T20:41:47.370Z,15.20
2023-07-26T20:44:16.831Z,15.10
2023-07-26T20:46:46.605Z,15.00
2023-07-26T20:49:16.279Z,15.00
2023-07-26T20:51:47.068Z,15.00
2023-07-26T20:54:16.647Z,14.90
2023-07-26T20:56:46.101Z,14.90
2023-07-26T20:59:15.691Z,14.90
2023-07-26T21:01:45.234Z,14.80
2023-07-26T21:04:14.688Z,14.70
2023-07-26T21:06:44.281Z,14.70
2023-07-26T21:09:14.296Z,14.60
2023-07-26T21:11:43.886Z,14.60
2023-07-26T21:14:13.499Z,14.60
2023-07-26T21:16:43.070Z,14.60
2023-07-26T21:19:12.615Z,14.50
2023-07-26T21:21:42.021Z,14.50
2023-07-26T21:24:11.477Z,14.40
2023-07-26T21:26:40.888Z,14.40
2023-07-26T21:29:11.240Z,14.30
2023-07-26T21:31:39.954Z,14.30
2023-07-26T21:34:09.398Z,14.30
2023-07-26T21:36:38.815Z,14.20
2023-07-26T21:39:08.471Z,14.20
2023-07-26T21:41:38.070Z,14.20
2023-07-26T21:44:07.630Z,14.20
2023-07-26T21:46:37.425Z,14.10
2023-07-26T21:49:07.331Z,14.10
2023-07-26T21:51:37.348Z,14.10
2023-07-26T21:54:06.720Z,14.10
2023-07-26T21:56:36.398Z,14.10
2023-07-26T21:59:07.385Z,14.10
2023-07-26T22:01:37.413Z,14.10
2023-07-26T22:04:07.560Z,14.10
2023-07-26T22:06:37.115Z,14.10
2023-07-26T22:09:06.624Z,14.10
2023-07-26T22:11:36.294Z,14.10
2023-07-26T22:14:05.810Z,14.10
2023-07-26T22:16:35.638Z,14.10
2023-07-26T22:19:05.417Z,14.10
2023-07-26T22:21:34.873Z,14.00
2023-07-26T22:24:04.574Z,14.00
2023-07-26T22:26:34.175Z,14.00
2023-07-26T22:29:03.861Z,14.00
2023-07-26T22:31:33.686Z,14.00
2023-07-26T22:34:03.617Z,14.00
2023-07-26T22:36:33.938Z,14.00
2023-07-26T22:39:02.722Z,14.00
2023-07-26T22:41:32.372Z,14.00
2023-07-26T22:44:02.063Z,14.00
2023-07-26T22:46:31.908Z,14.00
2023-07-26T22:49:01.789Z,14.00
2023-07-26T22:51:31.593Z,14.10
2023-07-26T22:54:01.472Z,14.10
2023-07-26T22:56:31.091Z,14.10
2023-07-26T22:59:00.580Z,14.20
2023-07-26T23:01:30.219Z,14.20
2023-07-26T23:03:59.792Z,14.20
2023-07-26T23:06:29.363Z,14.30
2023-07-26T23:08:58.915Z,14.30
2023-07-26T23:11:28.453Z,14.30
2023-07-26T23:13:57.977Z,14.30
2023-07-26T23:16:27.507Z,14.30
2023-07-26T23:18:57.011Z,14.40
2023-07-26T23:21:26.523Z,14.40
2023-07-26T23:23:56.072Z,14.30
2023-07-26T23:26:26.520Z,14.30
2023-07-26T23:28:56.025Z,14.30
2023-07-26T23:31:25.680Z,14.30
2023-07-26T23:33:55.199Z,14.30
2023-07-26T23:36:24.672Z,14.40
2023-07-26T23:38:54.177Z,14.40
2023-07-26T23:41:23.685Z,14.40
2023-07-26T23:43:53.300Z,14.40
2023-07-26T23:46:22.897Z,14.40
2023-07-26T23:48:53.026Z,14.40
2023-07-26T23:51:23.517Z,14.40
2023-07-26T23:53:53.024Z,14.40
2023-07-26T23:56:22.610Z,14.40
2023-07-26T23:58:52.128Z,14.40
